Terminal Aerodrome Forecast
Issued by NWS

Home | Current Version | Previous Version | Text Only | Print | Product List | Glossary On
Versions: 1 2 3 4 5 6 7 8 9 10 11 12 13 14 15 16 17 18 19
722
FTUS43 KICT 141720
TAFCNU
TAF
KCNU 141720Z 1418/1518 01006KT 5SM -FZRADZ OVC008
     FM150500 04005KT 2SM -FZRA OVC008
     FM151500 06005KT 1SM -RA OVC003=

USA.gov is the U.S. government's official web portal to all federal, state and local government web resources and services.